Time;durP1;ratioP1;P1;durP2;ratioP2;P2;SDS_P1;SDS_P2;PMS_P1;PMS_P2;Temp;Humidity;BMP_temperature;BMP_pressure;BME280_temperature;BME280_humidity;BME280_pressure;Samples;Min_cycle;Max_cycle;Signal;HPM_P1;HPM_P2
2022/10/01 00:01:48;;;;;;;9.60;6.70;;;;;;;;;;5064851;28;20043;-66
2022/10/01 00:04:14;;;;;;;9.85;6.65;;;;;;;;;;5067764;28;20054;-66
2022/10/01 00:06:40;;;;;;;10.35;7.38;;;;;;;;;;5071420;28;20044;-66
2022/10/01 00:09:06;;;;;;;9.35;7.32;;;;;;;;;;5066948;28;20462;-66
2022/10/01 00:11:33;;;;;;;8.80;7.05;;;;;;;;;;5067007;28;20134;-66
2022/10/01 00:14:00;;;;;;;8.88;7.20;;;;;;;;;;5071884;28;20055;-65
2022/10/01 00:16:27;;;;;;;8.45;7.03;;;;;;;;;;5066410;28;20040;-66
2022/10/01 00:18:54;;;;;;;10.80;7.82;;;;;;;;;;5066975;28;20044;-66
2022/10/01 00:21:30;;;;;;;9.48;7.20;;;;;;;;;;5066515;28;20235;-66
2022/10/01 00:24:05;;;;;;;9.40;7.35;;;;;;;;;;5067407;28;20040;-66
2022/10/01 00:26:35;;;;;;;8.68;7.15;;;;;;;;;;5066539;28;20048;-65
2022/10/01 00:29:03;;;;;;;9.70;7.35;;;;;;;;;;5066649;28;20070;-66
2022/10/01 00:31:30;;;;;;;8.13;7.22;;;;;;;;;;5064188;28;20051;-66
2022/10/01 00:33:59;;;;;;;10.27;7.82;;;;;;;;;;5064255;28;20500;-66
2022/10/01 00:36:26;;;;;;;8.48;7.60;;;;;;;;;;5066763;28;20085;-66
2022/10/01 00:38:52;;;;;;;8.82;6.70;;;;;;;;;;5065906;28;20048;-66
2022/10/01 00:41:18;;;;;;;9.05;7.40;;;;;;;;;;5063685;28;20044;-66
2022/10/01 00:43:46;;;;;;;11.15;7.82;;;;;;;;;;5069944;28;20140;-66
2022/10/01 00:46:19;;;;;;;9.85;7.97;;;;;;;;;;5070428;28;20039;-66
2022/10/01 00:49:06;;;;;;;10.65;7.90;;;;;;;;;;5067357;28;20078;-66
2022/10/01 00:51:33;;;;;;;9.77;7.55;;;;;;;;;;5066152;28;20497;-66
2022/10/01 00:54:03;;;;;;;11.40;7.97;;;;;;;;;;5072279;28;20066;-66
2022/10/01 00:56:30;;;;;;;11.18;7.85;;;;;;;;;;5072045;28;20044;-66
2022/10/01 00:58:57;;;;;;;12.40;7.63;;;;;;;;;;5069574;28;20486;-66
2022/10/01 01:01:23;;;;;;;10.48;8.00;;;;;;;;;;5068228;28;20167;-66
2022/10/01 01:03:49;;;;;;;10.10;8.00;;;;;;;;;;5071020;28;20375;-66
2022/10/01 01:06:16;;;;;;;11.35;7.68;;;;;;;;;;5070875;28;20037;-66
2022/10/01 01:08:42;;;;;;;9.50;7.63;;;;;;;;;;5069209;28;20040;-66
2022/10/01 01:11:14;;;;;;;9.35;8.00;;;;;;;;;;5070836;28;20040;-66
2022/10/01 01:13:54;;;;;;;11.85;8.15;;;;;;;;;;5069273;28;20581;-66
2022/10/01 01:16:33;;;;;;;12.02;8.40;;;;;;;;;;5069578;28;20116;-66
2022/10/01 01:19:04;;;;;;;11.20;8.40;;;;;;;;;;5069063;28;20512;-66
2022/10/01 01:21:30;;;;;;;;;;;;;;;;;;5069879;28;20040;-66
2022/10/01 01:24:22;;;;;;;10.57;8.35;;;;;;;;;;5069321;28;20010;-66
2022/10/01 01:27:01;;;;;;;10.60;8.32;;;;;;;;;;5061483;28;20095;-66
2022/10/01 01:29:32;;;;;;;9.93;8.02;;;;;;;;;;5068711;28;20090;-66
2022/10/01 01:32:02;;;;;;;9.80;8.30;;;;;;;;;;5068583;28;20124;-66
2022/10/01 01:34:30;;;;;;;11.43;8.52;;;;;;;;;;5069998;28;20028;-65
2022/10/01 01:37:17;;;;;;;10.68;8.48;;;;;;;;;;5069979;28;20036;-66
2022/10/01 01:39:44;;;;;;;12.02;8.98;;;;;;;;;;5069361;28;20051;-66
2022/10/01 01:42:16;;;;;;;10.35;8.30;;;;;;;;;;5069720;28;20094;-66
2022/10/01 01:44:44;;;;;;;10.45;8.10;;;;;;;;;;5067629;28;20083;-66
2022/10/01 01:47:11;;;;;;;10.68;8.30;;;;;;;;;;5067517;28;20161;-66
2022/10/01 01:49:38;;;;;;;9.95;7.70;;;;;;;;;;5068244;28;20041;-66
2022/10/01 01:52:13;;;;;;;11.20;7.97;;;;;;;;;;5060186;28;20052;-66
2022/10/01 01:54:40;;;;;;;11.75;8.38;;;;;;;;;;5060136;28;20041;-65
2022/10/01 01:57:07;;;;;;;10.98;8.13;;;;;;;;;;5062533;28;20463;-66
2022/10/01 01:59:33;;;;;;;11.55;7.78;;;;;;;;;;5062923;28;20040;-66
2022/10/01 02:01:59;;;;;;;12.18;8.85;;;;;;;;;;5062747;28;20036;-65
2022/10/01 02:04:34;;;;;;;9.70;8.23;;;;;;;;;;5066089;28;20044;-66
2022/10/01 02:07:10;;;;;;;11.95;8.82;;;;;;;;;;5057181;28;20037;-66
2022/10/01 02:09:42;;;;;;;12.30;8.73;;;;;;;;;;5059703;28;20041;-66
2022/10/01 02:12:13;;;;;;;13.25;8.10;;;;;;;;;;5061670;28;20148;-66
2022/10/01 02:15:00;;;;;;;10.45;8.35;;;;;;;;;;5061658;28;20124;-66
2022/10/01 02:17:29;;;;;;;10.35;8.65;;;;;;;;;;5063123;28;20079;-66
2022/10/01 02:20:01;;;;;;;11.60;8.27;;;;;;;;;;5060023;28;20517;-66
2022/10/01 02:22:39;;;;;;;11.60;8.27;;;;;;;;;;5077760;22;20041;-69
2022/10/01 02:25:06;;;;;;;12.50;8.98;;;;;;;;;;5034368;28;20558;-68
2022/10/01 02:27:40;;;;;;;8.82;7.82;;;;;;;;;;5072804;28;20120;-69
2022/10/01 02:30:08;;;;;;;9.23;8.05;;;;;;;;;;5054410;28;20502;-69
2022/10/01 02:32:36;;;;;;;10.95;8.18;;;;;;;;;;5048046;28;20128;-69
2022/10/01 02:35:04;;;;;;;11.35;8.15;;;;;;;;;;5035560;28;20120;-69
2022/10/01 02:37:30;;;;;;;9.50;7.72;;;;;;;;;;5068802;28;21272;-69
2022/10/01 02:39:57;;;;;;;9.95;7.70;;;;;;;;;;5069080;28;20040;-70
2022/10/01 02:42:25;;;;;;;10.40;7.75;;;;;;;;;;5035832;28;20401;-70
2022/10/01 02:44:52;;;;;;;9.50;7.38;;;;;;;;;;5060661;28;20040;-70
2022/10/01 02:47:21;;;;;;;9.80;7.25;;;;;;;;;;5060337;28;20053;-70
2022/10/01 02:49:47;;;;;;;8.20;7.28;;;;;;;;;;5051707;28;20041;-70
2022/10/01 02:52:23;;;;;;;10.18;7.88;;;;;;;;;;5018150;28;20454;-70
2022/10/01 02:54:58;;;;;;;10.00;7.78;;;;;;;;;;5053929;28;20078;-70
2022/10/01 02:57:28;;;;;;;8.65;7.20;;;;;;;;;;5034608;28;20041;-71
2022/10/01 02:59:55;;;;;;;8.90;7.00;;;;;;;;;;5065368;28;20045;-70
2022/10/01 03:02:22;;;;;;;7.63;6.38;;;;;;;;;;5041272;28;20465;-71
2022/10/01 03:04:48;;;;;;;7.18;6.40;;;;;;;;;;5062248;28;20041;-70
2022/10/01 03:07:15;;;;;;;8.98;6.40;;;;;;;;;;5035320;28;20044;-71
2022/10/01 03:09:41;;;;;;;8.27;6.28;;;;;;;;;;5018619;28;20052;-70
2022/10/01 03:12:09;;;;;;;7.28;5.75;;;;;;;;;;5037249;28;20040;-70
2022/10/01 03:14:36;;;;;;;7.68;6.38;;;;;;;;;;5065918;28;20040;-71
2022/10/01 03:17:03;;;;;;;7.80;5.97;;;;;;;;;;5053012;28;20045;-71
2022/10/01 03:19:29;;;;;;;7.13;5.95;;;;;;;;;;5052091;28;20045;-71
2022/10/01 03:21:55;;;;;;;7.72;6.03;;;;;;;;;;5035354;28;20040;-71
2022/10/01 03:24:21;;;;;;;8.57;5.35;;;;;;;;;;5033453;28;20121;-71
2022/10/01 03:26:48;;;;;;;6.90;5.60;;;;;;;;;;5037578;28;20103;-71
2022/10/01 03:29:14;;;;;;;6.43;5.18;;;;;;;;;;5033255;28;20494;-71
2022/10/01 03:31:40;;;;;;;4.93;3.97;;;;;;;;;;5048803;28;20036;-71
2022/10/01 03:34:06;;;;;;;6.10;4.80;;;;;;;;;;5033583;28;20103;-71
2022/10/01 03:36:32;;;;;;;7.32;5.25;;;;;;;;;;5026275;28;20073;-71
2022/10/01 03:38:58;;;;;;;7.05;5.53;;;;;;;;;;5029964;28;20041;-71
2022/10/01 03:41:24;;;;;;;8.02;5.32;;;;;;;;;;5043333;28;20633;-71
2022/10/01 03:43:51;;;;;;;6.50;5.60;;;;;;;;;;5056452;28;20077;-70
2022/10/01 03:46:17;;;;;;;6.63;5.20;;;;;;;;;;5033426;28;20060;-70
2022/10/01 03:48:43;;;;;;;8.27;5.00;;;;;;;;;;5053170;28;20073;-70
2022/10/01 03:51:09;;;;;;;7.57;4.43;;;;;;;;;;5057893;28;20047;-70
2022/10/01 03:53:35;;;;;;;6.07;4.50;;;;;;;;;;5042159;28;20069;-70
2022/10/01 03:56:03;;;;;;;7.10;4.22;;;;;;;;;;5031729;28;20040;-70
2022/10/01 03:58:29;;;;;;;5.85;4.35;;;;;;;;;;5055156;28;20044;-71
2022/10/01 04:00:56;;;;;;;6.50;4.13;;;;;;;;;;5049937;28;20490;-71
2022/10/01 04:03:22;;;;;;;5.53;4.15;;;;;;;;;;5037798;28;20413;-70
2022/10/01 04:05:49;;;;;;;5.47;4.30;;;;;;;;;;5060986;28;20393;-70
2022/10/01 04:08:15;;;;;;;4.95;4.13;;;;;;;;;;5053889;28;20048;-71
2022/10/01 04:10:41;;;;;;;5.05;4.35;;;;;;;;;;5045894;28;20053;-71
2022/10/01 04:13:07;;;;;;;5.50;4.60;;;;;;;;;;5031178;28;20041;-70
2022/10/01 04:15:34;;;;;;;4.88;4.38;;;;;;;;;;5027618;28;20038;-70
2022/10/01 04:18:04;;;;;;;5.55;4.53;;;;;;;;;;5048306;28;20042;-71
2022/10/01 04:20:30;;;;;;;5.15;4.25;;;;;;;;;;5057261;28;20040;-70
2022/10/01 04:22:56;;;;;;;5.50;4.35;;;;;;;;;;5052879;28;20049;-70
2022/10/01 04:25:22;;;;;;;5.05;4.32;;;;;;;;;;5034543;28;20453;-70
2022/10/01 04:27:59;;;;;;;6.35;4.30;;;;;;;;;;5033131;28;20088;-70
2022/10/01 04:30:27;;;;;;;5.00;3.80;;;;;;;;;;5049605;28;20036;-70
2022/10/01 04:32:53;;;;;;;4.90;4.18;;;;;;;;;;5045407;28;20350;-70
2022/10/01 04:35:20;;;;;;;5.45;3.97;;;;;;;;;;5037257;28;20430;-70
2022/10/01 04:37:46;;;;;;;5.40;4.03;;;;;;;;;;5058176;28;20506;-70
2022/10/01 04:40:12;;;;;;;4.28;3.72;;;;;;;;;;5053272;28;20127;-70
2022/10/01 04:42:39;;;;;;;5.35;3.70;;;;;;;;;;5034277;28;20041;-70
2022/10/01 04:45:06;;;;;;;4.18;3.45;;;;;;;;;;5035045;28;20045;-70
2022/10/01 04:47:32;;;;;;;3.80;3.28;;;;;;;;;;5028638;28;20032;-70
2022/10/01 04:49:58;;;;;;;3.88;3.30;;;;;;;;;;5059824;28;20505;-70
2022/10/01 04:52:25;;;;;;;3.58;3.00;;;;;;;;;;5051686;28;20494;-70
2022/10/01 04:54:51;;;;;;;3.40;3.10;;;;;;;;;;5036480;28;20049;-70
2022/10/01 04:57:20;;;;;;;6.28;3.38;;;;;;;;;;5050434;28;20120;-70
2022/10/01 04:59:46;;;;;;;4.65;3.20;;;;;;;;;;5032649;28;20384;-70
2022/10/01 05:02:13;;;;;;;3.45;2.50;;;;;;;;;;5054759;28;20033;-71
2022/10/01 05:04:39;;;;;;;3.83;2.90;;;;;;;;;;5041118;28;20043;-71
2022/10/01 05:07:05;;;;;;;3.13;2.65;;;;;;;;;;5049348;28;20036;-70
2022/10/01 05:09:31;;;;;;;4.00;2.80;;;;;;;;;;5042435;28;20077;-70
2022/10/01 05:11:57;;;;;;;3.42;2.72;;;;;;;;;;5055493;28;20037;-70
2022/10/01 05:14:25;;;;;;;3.40;2.75;;;;;;;;;;5051818;28;20037;-70
2022/10/01 05:16:51;;;;;;;2.75;2.55;;;;;;;;;;5032177;28;20045;-70
2022/10/01 05:19:17;;;;;;;3.53;2.55;;;;;;;;;;5045191;28;20393;-70
2022/10/01 05:21:45;;;;;;;3.53;2.88;;;;;;;;;;5055620;28;20037;-70
2022/10/01 05:24:11;;;;;;;3.15;2.63;;;;;;;;;;5048252;28;20525;-70
2022/10/01 05:26:37;;;;;;;2.90;2.60;;;;;;;;;;5056603;28;20410;-70
2022/10/01 05:29:03;;;;;;;2.75;2.47;;;;;;;;;;5031096;28;20041;-70
2022/10/01 05:31:30;;;;;;;3.70;3.10;;;;;;;;;;5054090;28;20036;-70
2022/10/01 05:33:56;;;;;;;3.78;2.85;;;;;;;;;;5032773;28;20041;-70
2022/10/01 05:36:22;;;;;;;4.00;3.00;;;;;;;;;;5055661;28;20040;-70
2022/10/01 05:38:48;;;;;;;3.05;2.75;;;;;;;;;;5051199;28;20516;-70
2022/10/01 05:41:15;;;;;;;8.63;3.13;;;;;;;;;;5033610;28;20058;-70
2022/10/01 05:43:42;;;;;;;3.22;2.90;;;;;;;;;;5041376;28;20129;-70
2022/10/01 05:46:09;;;;;;;3.33;2.95;;;;;;;;;;5054071;28;20048;-70
2022/10/01 05:48:36;;;;;;;3.42;3.13;;;;;;;;;;5050988;28;20088;-70
2022/10/01 05:51:05;;;;;;;4.78;3.20;;;;;;;;;;5049491;28;20444;-69
2022/10/01 05:53:31;;;;;;;4.97;3.58;;;;;;;;;;5050382;28;20072;-70
2022/10/01 05:56:01;;;;;;;3.50;3.20;;;;;;;;;;5053759;28;20037;-70
2022/10/01 05:58:27;;;;;;;4.72;3.58;;;;;;;;;;5043767;28;20124;-70
2022/10/01 06:00:54;;;;;;;5.05;3.67;;;;;;;;;;5027232;28;20129;-69
2022/10/01 06:03:20;;;;;;;4.55;4.00;;;;;;;;;;5053713;28;20033;-70
2022/10/01 06:05:47;;;;;;;4.93;3.70;;;;;;;;;;5054252;28;20068;-70
2022/10/01 06:08:13;;;;;;;5.05;3.60;;;;;;;;;;5064405;28;20125;-70
2022/10/01 06:10:40;;;;;;;4.80;3.78;;;;;;;;;;5039136;28;20486;-71
2022/10/01 06:13:06;;;;;;;4.13;3.72;;;;;;;;;;5033787;28;20040;-70
2022/10/01 06:15:36;;;;;;;4.80;4.15;;;;;;;;;;5055447;28;20047;-70
2022/10/01 06:18:03;;;;;;;6.60;4.63;;;;;;;;;;5050217;28;20455;-70
2022/10/01 06:20:29;;;;;;;5.53;4.97;;;;;;;;;;5029865;28;20057;-70
2022/10/01 06:22:56;;;;;;;6.00;5.35;;;;;;;;;;5052661;28;20541;-71
2022/10/01 06:25:22;;;;;;;5.40;4.72;;;;;;;;;;5051799;28;20037;-70
2022/10/01 06:27:56;;;;;;;5.97;5.38;;;;;;;;;;5066837;28;20040;-71
2022/10/01 06:30:30;;;;;;;9.05;5.72;;;;;;;;;;5034573;28;20038;-70
2022/10/01 06:33:07;;;;;;;6.93;5.18;;;;;;;;;;5051846;28;20425;-71
2022/10/01 06:35:34;;;;;;;8.45;5.72;;;;;;;;;;5052550;28;20409;-71
2022/10/01 06:38:01;;;;;;;7.60;5.63;;;;;;;;;;5041749;28;20045;-71
2022/10/01 06:40:30;;;;;;;7.53;5.07;;;;;;;;;;5050207;28;20040;-70
2022/10/01 06:42:57;;;;;;;6.95;6.20;;;;;;;;;;5048548;28;20034;-70
2022/10/01 06:45:27;;;;;;;6.25;5.60;;;;;;;;;;5049442;28;20045;-70
2022/10/01 06:47:58;;;;;;;7.90;6.13;;;;;;;;;;5047793;28;20041;-70
2022/10/01 06:50:24;;;;;;;8.32;6.15;;;;;;;;;;5050088;28;20040;-71
2022/10/01 06:52:51;;;;;;;8.40;6.50;;;;;;;;;;5055637;28;20025;-71
2022/10/01 06:55:19;;;;;;;11.35;6.75;;;;;;;;;;5039688;28;20451;-71
2022/10/01 06:57:45;;;;;;;7.82;6.50;;;;;;;;;;5052023;28;20040;-71
2022/10/01 07:00:12;;;;;;;6.68;6.07;;;;;;;;;;5056156;28;20040;-70
2022/10/01 07:02:38;;;;;;;8.82;6.80;;;;;;;;;;5039230;28;20079;-70
2022/10/01 07:05:05;;;;;;;7.70;6.60;;;;;;;;;;5035334;28;20063;-70
2022/10/01 07:07:33;;;;;;;8.80;6.47;;;;;;;;;;5054194;28;20047;-70
2022/10/01 07:09:59;;;;;;;9.63;6.80;;;;;;;;;;5056327;28;20498;-70
2022/10/01 07:12:25;;;;;;;12.45;7.22;;;;;;;;;;5016609;28;20130;-70
2022/10/01 07:14:51;;;;;;;7.20;6.50;;;;;;;;;;5006161;28;20108;-70
2022/10/01 07:17:17;;;;;;;9.77;6.88;;;;;;;;;;5027877;28;20506;-70
2022/10/01 07:19:44;;;;;;;8.45;7.10;;;;;;;;;;5038240;28;20041;-70
2022/10/01 07:22:10;;;;;;;8.73;6.80;;;;;;;;;;5045578;28;20120;-70
2022/10/01 07:24:36;;;;;;;7.90;7.10;;;;;;;;;;5029134;28;20402;-71
2022/10/01 07:27:02;;;;;;;10.85;6.75;;;;;;;;;;5029883;28;20041;-71
2022/10/01 07:29:29;;;;;;;11.43;7.30;;;;;;;;;;5048648;28;20445;-70
2022/10/01 07:31:58;;;;;;;10.88;6.90;;;;;;;;;;5036683;28;20041;-70
2022/10/01 07:34:24;;;;;;;9.18;7.50;;;;;;;;;;5023316;28;20090;-70
2022/10/01 07:36:50;;;;;;;9.02;6.72;;;;;;;;;;5050859;28;20048;-71
2022/10/01 07:39:16;;;;;;;13.05;6.47;;;;;;;;;;5022920;28;20051;-70
2022/10/01 07:41:42;;;;;;;9.25;6.30;;;;;;;;;;5045028;28;20044;-70
2022/10/01 07:44:10;;;;;;;10.38;5.90;;;;;;;;;;5020861;28;20045;-70
2022/10/01 07:46:37;;;;;;;10.00;6.78;;;;;;;;;;5006771;28;20041;-71
2022/10/01 07:49:03;;;;;;;9.30;6.78;;;;;;;;;;5032864;28;20408;-71
2022/10/01 07:51:30;;;;;;;10.23;6.85;;;;;;;;;;5047481;28;20056;-71
2022/10/01 07:53:57;;;;;;;9.60;6.80;;;;;;;;;;5028779;28;20041;-71
2022/10/01 07:56:24;;;;;;;12.18;6.47;;;;;;;;;;5022802;28;20507;-71
2022/10/01 07:58:54;;;;;;;11.35;5.97;;;;;;;;;;5040882;28;20402;-70
2022/10/01 08:01:20;;;;;;;8.88;5.70;;;;;;;;;;5048645;28;20399;-70
2022/10/01 08:03:49;;;;;;;11.20;5.43;;;;;;;;;;5035501;28;20099;-70
2022/10/01 08:06:17;;;;;;;12.68;5.50;;;;;;;;;;5053213;28;20037;-70
2022/10/01 08:08:43;;;;;;;8.63;5.85;;;;;;;;;;5046062;28;20048;-71
2022/10/01 08:11:12;;;;;;;12.07;5.45;;;;;;;;;;5072275;28;20589;-70
2022/10/01 08:13:38;;;;;;;7.93;5.40;;;;;;;;;;5043150;28;20041;-72
2022/10/01 08:16:06;;;;;;;9.38;5.80;;;;;;;;;;5050373;28;20071;-72
2022/10/01 08:18:33;;;;;;;11.73;5.95;;;;;;;;;;5048085;28;20098;-71
2022/10/01 08:21:02;;;;;;;11.43;6.00;;;;;;;;;;5077434;22;20679;-62
2022/10/01 08:23:29;;;;;;;10.57;5.63;;;;;;;;;;5040289;28;20079;-63
2022/10/01 08:26:02;;;;;;;11.00;5.72;;;;;;;;;;5050384;28;20486;-62
2022/10/01 08:28:28;;;;;;;8.73;5.30;;;;;;;;;;5044408;28;20051;-63
2022/10/01 08:30:55;;;;;;;9.18;5.13;;;;;;;;;;5037442;28;20033;-64
2022/10/01 08:33:21;;;;;;;10.85;5.32;;;;;;;;;;5032613;28;20099;-63
2022/10/01 08:35:47;;;;;;;10.55;4.90;;;;;;;;;;5028945;28;20533;-63
2022/10/01 08:38:14;;;;;;;11.93;4.57;;;;;;;;;;5027018;28;20042;-63
2022/10/01 08:40:46;;;;;;;12.00;4.30;;;;;;;;;;5028128;28;20049;-63
2022/10/01 08:43:21;;;;;;;13.35;4.00;;;;;;;;;;5028684;28;20050;-64
2022/10/01 08:45:50;;;;;;;8.00;3.50;;;;;;;;;;5028388;28;20445;-64
2022/10/01 08:48:19;;;;;;;8.18;3.05;;;;;;;;;;5029823;28;20077;-64
2022/10/01 08:50:54;;;;;;;8.40;2.60;;;;;;;;;;5031254;28;20115;-63
2022/10/01 08:53:35;;;;;;;11.45;3.05;;;;;;;;;;5029776;28;20045;-63
2022/10/01 08:56:02;;;;;;;7.25;2.88;;;;;;;;;;5031975;28;20062;-63
2022/10/01 08:58:36;;;;;;;9.52;2.40;;;;;;;;;;5032857;28;20102;-63
2022/10/01 09:01:02;;;;;;;6.00;2.22;;;;;;;;;;5032622;28;20423;-63
2022/10/01 09:03:31;;;;;;;8.77;2.30;;;;;;;;;;5028452;28;20446;-63
2022/10/01 09:06:29;;;;;;;8.82;2.22;;;;;;;;;;5022337;28;20041;-63
2022/10/01 09:09:10;;;;;;;7.53;2.30;;;;;;;;;;5000031;28;20060;-64
2022/10/01 09:11:42;;;;;;;6.03;2.22;;;;;;;;;;5029911;28;20504;-63
2022/10/01 09:14:27;;;;;;;8.70;2.47;;;;;;;;;;5014552;28;20084;-63
2022/10/01 09:17:14;;;;;;;7.70;2.05;;;;;;;;;;5019687;28;20487;-63
2022/10/01 09:19:53;;;;;;;8.32;2.30;;;;;;;;;;5029251;28;20072;-63
2022/10/01 09:22:29;;;;;;;8.68;2.08;;;;;;;;;;5030809;28;20041;-63
2022/10/01 09:25:03;;;;;;;7.03;2.13;;;;;;;;;;5026642;28;20483;-63
2022/10/01 09:27:29;;;;;;;8.98;1.80;;;;;;;;;;5031170;28;20037;-63
2022/10/01 09:30:02;;;;;;;6.32;1.92;;;;;;;;;;5027254;28;20065;-63
2022/10/01 09:32:35;;;;;;;10.90;2.33;;;;;;;;;;5028363;28;20048;-63
2022/10/01 09:35:05;;;;;;;9.20;1.75;;;;;;;;;;5029836;28;20200;-63
2022/10/01 09:37:44;;;;;;;4.80;1.40;;;;;;;;;;5033556;28;20049;-63
2022/10/01 09:40:23;;;;;;;4.60;1.48;;;;;;;;;;5027433;28;20040;-63
2022/10/01 09:42:49;;;;;;;5.72;1.50;;;;;;;;;;5027041;28;20122;-63
2022/10/01 09:45:17;;;;;;;4.22;1.52;;;;;;;;;;5027008;28;20041;-63
2022/10/01 09:47:45;;;;;;;3.72;1.20;;;;;;;;;;5029452;28;20248;-62
2022/10/01 09:50:16;;;;;;;5.25;1.27;;;;;;;;;;5029683;28;20048;-63
2022/10/01 09:52:43;;;;;;;8.57;1.60;;;;;;;;;;5028342;28;20037;-63
2022/10/01 09:55:21;;;;;;;3.67;1.40;;;;;;;;;;5028971;28;20496;-63
2022/10/01 09:57:59;;;;;;;5.82;1.50;;;;;;;;;;5027931;28;20135;-63
2022/10/01 10:00:26;;;;;;;3.28;1.27;;;;;;;;;;5029847;28;20124;-63
2022/10/01 10:02:53;;;;;;;3.47;1.10;;;;;;;;;;5031783;28;20534;-63
2022/10/01 10:05:19;;;;;;;4.53;1.15;;;;;;;;;;5028161;28;20033;-63
2022/10/01 10:07:52;;;;;;;4.13;1.45;;;;;;;;;;5023158;28;20049;-63
2022/10/01 10:10:38;;;;;;;5.82;1.20;;;;;;;;;;5026042;28;20038;-63
2022/10/01 10:13:17;;;;;;;4.32;1.17;;;;;;;;;;5017609;28;20052;-63
2022/10/01 10:15:53;;;;;;;2.70;0.90;;;;;;;;;;5019793;28;20042;-62
2022/10/01 10:18:34;;;;;;;4.95;1.38;;;;;;;;;;5028191;28;20037;-63
2022/10/01 10:21:02;;;;;;;4.47;1.10;;;;;;;;;;5028158;28;20085;-63
2022/10/01 10:23:28;;;;;;;4.50;1.10;;;;;;;;;;5015021;28;20451;-63
2022/10/01 10:26:01;;;;;;;5.13;1.00;;;;;;;;;;5020067;28;20045;-63
2022/10/01 10:28:28;;;;;;;6.25;1.10;;;;;;;;;;5027633;28;20046;-63
2022/10/01 10:30:55;;;;;;;4.53;1.20;;;;;;;;;;5030007;28;20056;-63
2022/10/01 10:33:23;;;;;;;4.22;1.10;;;;;;;;;;5023139;28;20038;-62
2022/10/01 10:36:02;;;;;;;5.25;1.20;;;;;;;;;;5026963;28;20042;-62
2022/10/01 10:38:34;;;;;;;6.68;1.40;;;;;;;;;;5029384;28;20117;-63
2022/10/01 10:41:02;;;;;;;5.25;1.60;;;;;;;;;;5034243;28;20049;-63
2022/10/01 10:43:33;;;;;;;12.15;2.40;;;;;;;;;;5028061;28;20041;-66
2022/10/01 10:45:59;;;;;;;11.50;2.40;;;;;;;;;;5026855;28;20072;-66
2022/10/01 10:48:30;;;;;;;8.02;1.83;;;;;;;;;;5030931;28;20038;-66
2022/10/01 10:51:00;;;;;;;10.05;2.30;;;;;;;;;;5029210;28;20415;-65
2022/10/01 10:53:27;;;;;;;8.38;2.20;;;;;;;;;;5033434;28;20064;-65
2022/10/01 10:56:00;;;;;;;6.40;1.83;;;;;;;;;;5030906;28;20038;-65
2022/10/01 10:58:27;;;;;;;7.25;1.60;;;;;;;;;;5030253;28;20049;-65
2022/10/01 11:00:55;;;;;;;6.40;1.33;;;;;;;;;;5031717;28;20549;-66
2022/10/01 11:03:23;;;;;;;6.45;1.35;;;;;;;;;;5033683;28;20041;-65
2022/10/01 11:05:55;;;;;;;4.70;1.55;;;;;;;;;;5033201;28;20041;-65
2022/10/01 11:08:23;;;;;;;5.95;1.40;;;;;;;;;;5033294;28;20574;-64
2022/10/01 11:10:55;;;;;;;3.80;1.00;;;;;;;;;;5031723;28;20056;-65
2022/10/01 11:13:48;;;;;;;5.38;1.08;;;;;;;;;;5031581;28;20046;-65
2022/10/01 11:16:26;;;;;;;6.82;1.25;;;;;;;;;;5031930;28;20056;-65
2022/10/01 11:18:54;;;;;;;6.30;1.17;;;;;;;;;;5039713;28;20507;-66
2022/10/01 11:21:40;;;;;;;8.63;1.30;;;;;;;;;;5039088;28;20049;-66
2022/10/01 11:24:06;;;;;;;4.75;1.40;;;;;;;;;;5021737;28;20095;-65
2022/10/01 11:27:01;;;;;;;6.38;1.33;;;;;;;;;;5031678;28;20038;-66
2022/10/01 11:29:37;;;;;;;8.43;1.33;;;;;;;;;;4974066;28;20146;-65
2022/10/01 11:32:06;;;;;;;4.88;1.10;;;;;;;;;;5035535;28;20049;-65
2022/10/01 11:34:32;;;;;;;6.75;1.25;;;;;;;;;;5027052;28;20070;-64
2022/10/01 11:37:09;;;;;;;6.15;1.30;;;;;;;;;;5023435;28;20041;-64
2022/10/01 11:39:37;;;;;;;7.18;1.55;;;;;;;;;;5026176;28;20051;-64
2022/10/01 11:42:08;;;;;;;4.32;0.82;;;;;;;;;;5031835;28;20462;-64
2022/10/01 11:44:36;;;;;;;4.03;1.20;;;;;;;;;;5031990;28;20052;-64
2022/10/01 11:47:11;;;;;;;4.70;0.85;;;;;;;;;;5029446;28;20473;-64
2022/10/01 11:49:46;;;;;;;3.00;0.90;;;;;;;;;;5024084;28;20099;-64
2022/10/01 11:52:28;;;;;;;4.55;1.00;;;;;;;;;;5022662;28;20041;-64
2022/10/01 11:58:49;;;;;;;8.40;1.30;;;;;;;;;;5034507;28;20616;-63
2022/10/01 12:00:29;;;;;;;3.80;1.05;;;;;;;;;;5024182;28;20053;-63
2022/10/01 12:02:58;;;;;;;5.72;1.30;;;;;;;;;;5030135;28;20045;-63
2022/10/01 12:05:30;;;;;;;4.53;1.40;;;;;;;;;;5032049;28;20042;-63
2022/10/01 12:08:15;;;;;;;5.07;1.20;;;;;;;;;;5031333;28;20080;-63
2022/10/01 12:10:47;;;;;;;7.55;1.48;;;;;;;;;;5031324;28;20075;-63
2022/10/01 12:13:21;;;;;;;10.70;1.50;;;;;;;;;;5032559;28;20402;-63
2022/10/01 12:16:05;;;;;;;6.75;1.73;;;;;;;;;;5024922;28;20099;-63
2022/10/01 12:18:36;;;;;;;6.82;1.35;;;;;;;;;;5030810;28;20056;-63
2022/10/01 12:21:03;;;;;;;9.30;1.70;;;;;;;;;;5030388;28;20124;-63
2022/10/01 12:23:37;;;;;;;9.10;1.77;;;;;;;;;;5029599;28;20136;-63
2022/10/01 12:26:16;;;;;;;11.52;1.70;;;;;;;;;;5035065;28;20056;-63
2022/10/01 12:28:50;;;;;;;7.82;1.48;;;;;;;;;;5026239;28;20045;-63
2022/10/01 12:31:21;;;;;;;7.38;1.60;;;;;;;;;;5029305;28;20056;-64
2022/10/01 12:34:06;;;;;;;8.20;1.88;;;;;;;;;;5027334;28;20037;-64
2022/10/01 12:36:43;;;;;;;10.20;1.98;;;;;;;;;;5028057;28;20040;-63
2022/10/01 12:39:16;;;;;;;8.85;1.95;;;;;;;;;;5030929;28;20171;-64
2022/10/01 12:42:00;;;;;;;7.72;1.75;;;;;;;;;;5029567;28;20041;-64
2022/10/01 12:44:26;;;;;;;9.07;2.45;;;;;;;;;;5030457;28;20052;-63
2022/10/01 12:46:57;;;;;;;12.50;2.08;;;;;;;;;;5030892;28;20399;-64
2022/10/01 12:49:30;;;;;;;8.02;2.00;;;;;;;;;;5029917;28;20511;-63
2022/10/01 12:51:56;;;;;;;7.50;1.77;;;;;;;;;;5027701;28;20049;-63
2022/10/01 12:54:31;;;;;;;8.02;1.58;;;;;;;;;;5031464;28;20495;-63
2022/10/01 12:57:02;;;;;;;9.25;2.05;;;;;;;;;;5028015;28;20063;-64
2022/10/01 12:59:28;;;;;;;8.52;1.60;;;;;;;;;;5025564;28;20060;-64
2022/10/01 13:02:03;;;;;;;12.57;2.10;;;;;;;;;;5033597;28;20208;-63
2022/10/01 13:04:49;;;;;;;6.78;1.65;;;;;;;;;;5034138;28;20134;-63
2022/10/01 13:07:15;;;;;;;8.27;1.73;;;;;;;;;;5027514;28;20037;-63
2022/10/01 13:10:02;;;;;;;7.20;1.88;;;;;;;;;;5029477;28;20037;-64
2022/10/01 13:12:43;;;;;;;8.32;1.90;;;;;;;;;;5023870;28;20052;-63
2022/10/01 13:15:15;;;;;;;6.97;2.08;;;;;;;;;;5034366;28;20511;-63
2022/10/01 13:17:45;;;;;;;9.65;2.13;;;;;;;;;;5022114;28;20057;-64
2022/10/01 13:20:17;;;;;;;6.85;2.10;;;;;;;;;;5033713;28;20033;-63
2022/10/01 13:23:13;;;;;;;10.50;1.90;;;;;;;;;;5030040;28;20120;-63
2022/10/01 13:25:45;;;;;;;11.43;1.98;;;;;;;;;;4969296;28;20070;-63
2022/10/01 13:28:28;;;;;;;7.88;2.00;;;;;;;;;;5029954;28;20492;-63
2022/10/01 13:30:58;;;;;;;9.93;2.35;;;;;;;;;;5021819;28;20115;-64
2022/10/01 13:33:30;;;;;;;9.88;2.10;;;;;;;;;;5030778;28;20395;-64
2022/10/01 13:36:01;;;;;;;10.77;1.88;;;;;;;;;;5029261;28;20577;-64
2022/10/01 13:38:29;;;;;;;10.87;2.00;;;;;;;;;;5028324;28;20060;-63
2022/10/01 13:41:02;;;;;;;10.38;1.85;;;;;;;;;;5029366;28;20453;-63
2022/10/01 13:43:29;;;;;;;12.02;2.00;;;;;;;;;;5029915;28;20145;-63
2022/10/01 13:45:56;;;;;;;9.85;2.38;;;;;;;;;;5030483;28;20083;-63
2022/10/01 13:48:23;;;;;;;12.70;2.10;;;;;;;;;;5029859;28;20041;-63
2022/10/01 13:51:01;;;;;;;9.05;1.85;;;;;;;;;;5021977;28;20064;-62
2022/10/01 13:53:28;;;;;;;10.52;1.98;;;;;;;;;;5025042;28;20389;-63
2022/10/01 13:55:55;;;;;;;9.45;1.95;;;;;;;;;;5033003;28;20435;-63
2022/10/01 13:58:39;;;;;;;13.98;2.10;;;;;;;;;;5036839;28;20076;-62
2022/10/01 14:01:17;;;;;;;9.70;1.48;;;;;;;;;;5035435;28;20049;-63
2022/10/01 14:04:01;;;;;;;12.82;1.92;;;;;;;;;;5022156;28;20107;-63
2022/10/01 14:06:29;;;;;;;9.65;2.25;;;;;;;;;;5029596;28;20037;-63
2022/10/01 14:09:16;;;;;;;10.00;2.10;;;;;;;;;;5030059;28;20049;-63
2022/10/01 14:17:21;;;;;;;12.85;2.38;;;;;;;;;;5028463;28;20077;-63
2022/10/01 14:19:49;;;;;;;14.20;1.95;;;;;;;;;;5028650;28;20102;-63
2022/10/01 14:22:15;;;;;;;10.00;1.95;;;;;;;;;;5073135;22;20075;-66
2022/10/01 14:25:00;;;;;;;10.68;1.90;;;;;;;;;;5092237;28;20036;-65
2022/10/01 14:27:29;;;;;;;11.15;2.00;;;;;;;;;;5091896;28;20036;-65
2022/10/01 14:30:02;;;;;;;8.90;2.58;;;;;;;;;;5092721;28;20048;-65
2022/10/01 14:32:49;;;;;;;8.73;1.88;;;;;;;;;;5092490;28;20055;-65
2022/10/01 14:35:22;;;;;;;10.32;1.70;;;;;;;;;;5092607;28;20044;-65
2022/10/01 14:37:49;;;;;;;9.50;1.63;;;;;;;;;;5092453;28;20043;-65
2022/10/01 14:40:15;;;;;;;9.77;1.65;;;;;;;;;;5092754;28;20127;-65
2022/10/01 14:42:41;;;;;;;7.93;1.73;;;;;;;;;;5092377;28;20122;-64
2022/10/01 14:45:14;;;;;;;9.90;1.77;;;;;;;;;;5090897;28;20055;-65
2022/10/01 14:47:40;;;;;;;9.75;1.50;;;;;;;;;;5092910;28;20044;-65
2022/10/01 14:50:11;;;;;;;8.43;1.77;;;;;;;;;;5092399;28;20093;-64
2022/10/01 14:52:39;;;;;;;9.07;2.05;;;;;;;;;;5092395;28;20043;-64
2022/10/01 14:55:06;;;;;;;12.18;2.35;;;;;;;;;;5089327;28;20685;-65
2022/10/01 14:57:35;;;;;;;10.32;2.00;;;;;;;;;;5071921;28;20040;-65
2022/10/01 15:00:07;;;;;;;6.53;1.80;;;;;;;;;;5073009;28;20036;-65
2022/10/01 15:02:33;;;;;;;9.45;1.73;;;;;;;;;;5073010;28;20055;-64
2022/10/01 15:04:59;;;;;;;13.77;2.10;;;;;;;;;;5070947;28;20048;-64
2022/10/01 15:07:32;;;;;;;15.00;2.05;;;;;;;;;;5071059;28;20040;-65